Time;durP1;ratioP1;P1;durP2;ratioP2;P2;SDS_P1;SDS_P2;PMS_P1;PMS_P2;Temp;Humidity;BMP_temperature;BMP_pressure;BME280_temperature;BME280_humidity;BME280_pressure;Samples;Min_cycle;Max_cycle;Signal;HPM_P1;HPM_P2
2021/01/14 00:06:10;;;;;;;26.30;19.83;;;;;;;-0.58;86.48;98103.47;493089;1144;65620;-60
2021/01/14 00:16:13;;;;;;;21.97;16.33;;;;;;;-0.63;85.93;98101.98;493695;1144;65160;-61
2021/01/14 00:26:18;;;;;;;19.93;14.13;;;;;;;-0.66;86.53;98099.55;492418;1144;65561;-61
2021/01/14 00:36:31;;;;;;;19.23;12.80;;;;;;;-0.66;86.39;98102.95;492194;1144;65128;-60
2021/01/14 00:46:41;;;;;;;16.53;11.37;;;;;;;-0.69;86.17;98095.35;492472;1145;65112;-61
2021/01/14 00:56:45;;;;;;;44.33;25.73;;;;;;;-0.67;86.82;98090.14;493003;1144;65175;-60
2021/01/14 01:06:49;;;;;;;17.33;11.70;;;;;;;-0.66;87.01;98092.64;493432;1144;65146;-61
2021/01/14 01:16:55;;;;;;;20.00;12.80;;;;;;;-0.67;87.30;98084.98;493272;1144;65390;-60
2021/01/14 01:26:59;;;;;;;16.65;10.85;;;;;;;-0.68;86.47;98088.47;492930;1145;65210;-60
2021/01/14 01:37:03;;;;;;;16.90;10.45;;;;;;;-0.71;86.39;98092.83;493464;1144;65555;-61
2021/01/14 01:47:11;;;;;;;18.00;11.97;;;;;;;-0.76;86.92;98081.88;493120;1144;65542;-62
2021/01/14 01:57:19;;;;;;;15.93;10.97;;;;;;;-0.81;86.55;98090.72;493097;1144;65122;-61
2021/01/14 02:07:40;;;;;;;16.60;11.83;;;;;;;-0.82;87.23;98082.13;493159;1143;65484;-60
2021/01/14 02:17:47;;;;;;;18.27;12.93;;;;;;;-0.76;86.77;98081.03;492705;1144;65207;-61
2021/01/14 02:27:56;;;;;;;19.20;13.47;;;;;;;-0.73;86.98;98086.91;493414;1144;65352;-61
2021/01/14 02:38:00;;;;;;;20.03;13.30;;;;;;;-0.68;86.56;98085.89;492980;1144;65415;-60
2021/01/14 02:48:11;;;;;;;20.00;14.23;;;;;;;-0.65;87.02;98090.91;493314;1143;65541;-59
2021/01/14 02:58:17;;;;;;;23.47;16.93;;;;;;;-0.61;86.81;98097.60;492918;1145;65119;-60
2021/01/14 03:08:21;;;;;;;22.57;15.67;;;;;;;-0.65;86.55;98101.22;492831;1144;65134;-60
2021/01/14 03:18:25;;;;;;;23.75;17.00;;;;;;;-0.62;87.24;98108.82;493120;1144;65187;-59
2021/01/14 03:28:29;;;;;;;26.07;17.63;;;;;;;-0.60;86.41;98110.44;493118;1145;65119;-60
2021/01/14 03:38:37;;;;;;;29.07;18.37;;;;;;;-0.58;87.22;98121.52;493160;1145;65462;-59
2021/01/14 03:48:43;;;;;;;27.20;18.43;;;;;;;-0.61;87.02;98123.38;493564;1144;65142;-60
2021/01/14 03:58:47;;;;;;;29.13;18.53;;;;;;;-0.64;86.74;98137.23;492773;1144;65210;-61
2021/01/14 04:08:51;;;;;;;34.43;23.80;;;;;;;-0.64;87.37;98144.97;493318;1142;65136;-59
2021/01/14 04:18:56;;;;;;;34.03;23.63;;;;;;;-0.63;86.98;98153.55;493414;1144;65143;-60
2021/01/14 04:29:00;;;;;;;33.13;21.97;;;;;;;-0.66;87.15;98153.69;492749;1144;65194;-60
2021/01/14 04:39:05;;;;;;;35.03;21.23;;;;;;;-0.67;87.55;98164.91;492818;1144;65210;-59
2021/01/14 04:49:09;;;;;;;32.90;20.90;;;;;;;-0.69;87.14;98175.27;492997;1144;65174;-60
2021/01/14 04:59:18;;;;;;;33.10;20.93;;;;;;;-0.72;86.42;98189.11;492873;1143;65147;-59
2021/01/14 05:09:25;;;;;;;38.27;23.87;;;;;;;-0.86;86.82;98207.73;493623;1143;66739;-60
2021/01/14 05:19:29;;;;;;;32.43;19.50;;;;;;;-0.97;86.74;98216.77;494081;1144;65481;-60
2021/01/14 05:29:33;;;;;;;31.90;21.85;;;;;;;-1.02;86.84;98235.83;493394;1145;65131;-61
2021/01/14 05:39:43;;;;;;;41.85;24.80;;;;;;;-1.09;87.52;98252.41;492770;1144;65248;-61
2021/01/14 05:50:00;;;;;;;36.13;20.07;;;;;;;-1.22;86.86;98264.08;493292;1144;65114;-60
2021/01/14 06:00:12;;;;;;;34.57;19.67;;;;;;;-1.50;86.81;98267.65;493847;1144;65207;-58
2021/01/14 06:10:31;;;;;;;36.10;20.03;;;;;;;-1.71;86.49;98298.43;493653;1144;65130;-60
2021/01/14 06:20:50;;;;;;;27.43;18.47;;;;;;;-1.71;86.44;98301.83;493530;1144;65152;-60
2021/01/14 06:31:02;;;;;;;29.53;18.10;;;;;;;-1.63;86.97;98329.05;493122;1143;65133;-62
2021/01/14 06:41:15;;;;;;;34.10;19.27;;;;;;;-1.59;87.12;98340.91;493952;1145;65129;-61
2021/01/14 06:51:30;;;;;;;32.93;21.17;;;;;;;-1.52;87.64;98365.56;493540;1144;65198;-59
2021/01/14 07:01:53;;;;;;;34.20;20.70;;;;;;;-1.52;87.61;98385.30;492998;1144;65124;-60
2021/01/14 07:12:00;;;;;;;41.27;23.57;;;;;;;-1.57;86.93;98396.61;493869;1144;65164;-60
2021/01/14 07:22:04;;;;;;;34.73;19.03;;;;;;;-1.43;87.47;98428.77;492707;1144;65536;-61
2021/01/14 07:32:08;;;;;;;37.60;18.67;;;;;;;-1.38;86.77;98442.35;493214;1144;65177;-60
2021/01/14 07:42:28;;;;;;;27.00;14.15;;;;;;;-1.33;86.58;98468.78;493186;1144;65159;-60
2021/01/14 07:52:34;;;;;;;30.95;19.15;;;;;;;-1.21;86.41;98484.71;493099;1144;65200;-60
2021/01/14 08:03:11;;;;;;;34.97;20.70;;;;;;;-0.32;85.97;98500.52;492941;1144;65475;-60
2021/01/14 08:13:14;;;;;;;;;;;;;;;1.11;84.26;98523.31;493514;1144;65207;-60
2021/01/14 08:23:21;;;;;;;33.60;21.60;;;;;;;1.39;83.49;98541.08;493124;1144;65676;-60
2021/01/14 08:33:26;;;;;;;34.03;19.93;;;;;;;1.44;81.49;98550.38;484196;1144;10000964;-60
2021/01/14 08:43:41;;;;;;;39.30;25.20;;;;;;;1.91;81.50;98568.17;492647;1144;65497;-60
2021/01/14 08:53:48;;;;;;;32.70;22.60;;;;;;;2.43;79.98;98589.99;492497;1144;65213;-61
2021/01/14 09:03:56;;;;;;;38.90;26.95;;;;;;;4.18;79.38;98595.20;493002;1144;65854;-60
2021/01/14 09:14:08;;;;;;;31.02;21.82;;;;;;;6.72;76.15;98617.84;492841;1144;65595;-60
2021/01/14 09:24:14;;;;;;;32.97;24.83;;;;;;;7.36;73.54;98626.80;493737;1144;66039;-61
2021/01/14 09:34:22;;;;;;;37.77;26.00;;;;;;;4.86;73.28;98650.45;493753;1145;65174;-63
2021/01/14 09:44:33;;;;;;;35.67;22.27;;;;;;;3.17;74.68;98667.77;493337;1144;65258;-67
2021/01/14 09:54:38;;;;;;;27.80;18.30;;;;;;;2.37;75.19;98694.75;493410;1144;65105;-66
2021/01/14 10:04:45;;;;;;;28.10;19.70;;;;;;;1.37;75.82;98710.19;493378;1144;65478;-70
2021/01/14 10:14:49;;;;;;;32.07;21.33;;;;;;;1.04;76.74;98708.03;492888;1144;65121;-70
2021/01/14 10:25:07;;;;;;;37.30;24.60;;;;;;;1.44;76.97;98726.30;492616;1144;65187;-68
2021/01/14 10:35:26;;;;;;;35.00;21.90;;;;;;;1.56;76.59;98741.36;493548;1144;65137;-74
2021/01/14 10:45:34;;;;;;;33.55;21.95;;;;;;;1.26;77.31;98757.19;493499;1144;65252;-70
2021/01/14 10:55:41;;;;;;;39.87;23.57;;;;;;;0.77;77.85;98763.34;495293;1144;65134;-65
2021/01/14 11:05:46;;;;;;;36.65;21.30;;;;;;;0.05;78.28;98764.14;493762;1144;65123;-65
2021/01/14 11:15:50;;;;;;;39.13;24.33;;;;;;;-0.04;78.60;98763.59;493471;1144;65232;-79
2021/01/14 11:25:54;;;;;;;50.75;27.20;;;;;;;-0.14;78.93;98777.69;496354;1144;65452;-66
2021/01/14 11:35:58;;;;;;;45.53;27.23;;;;;;;-0.09;78.45;98785.28;493187;1144;65648;-61
2021/01/14 11:46:03;;;;;;;46.93;27.20;;;;;;;-0.18;78.82;98786.41;492730;1142;65462;-60
2021/01/14 11:56:07;;;;;;;50.20;27.35;;;;;;;-0.34;79.37;98804.15;492659;1144;65143;-62
2021/01/14 12:06:12;;;;;;;40.20;23.30;;;;;;;-0.45;79.59;98805.33;493706;1144;65144;-63
2021/01/14 12:16:16;;;;;;;39.90;25.10;;;;;;;-0.53;79.79;98824.49;493931;1144;65115;-61
2021/01/14 12:26:20;;;;;;;39.07;21.87;;;;;;;-0.51;80.70;98835.63;493167;1144;65147;-61
2021/01/14 12:36:24;;;;;;;47.00;26.93;;;;;;;-0.69;79.90;98852.48;492862;1145;65141;-64
2021/01/14 12:46:38;;;;;;;46.70;27.35;;;;;;;-0.85;80.51;98851.22;493074;1144;65475;-63
2021/01/14 12:56:42;;;;;;;44.57;28.33;;;;;;;-0.90;81.01;98863.38;492848;1144;65159;-62
2021/01/14 13:06:48;;;;;;;45.77;26.43;;;;;;;-0.93;81.46;98867.77;493510;1145;65210;-62
2021/01/14 13:16:53;;;;;;;45.05;24.10;;;;;;;-0.97;81.28;98873.91;492709;1144;65589;-64
2021/01/14 13:26:57;;;;;;;33.23;22.30;;;;;;;-1.04;81.88;98889.56;485438;1144;10001503;-66
2021/01/14 13:37:04;;;;;;;42.73;22.23;;;;;;;-1.00;81.83;98898.03;493038;1145;66041;-66
2021/01/14 13:47:17;;;;;;;;;;;;;;;-1.14;82.18;98901.84;492471;1144;65111;-63
2021/01/14 13:57:21;;;;;;;30.97;17.53;;;;;;;-1.25;82.56;98914.16;492557;1143;65204;-61
2021/01/14 14:07:25;;;;;;;28.97;16.43;;;;;;;-1.30;81.95;98924.58;492802;1144;65160;-60
2021/01/14 14:17:29;;;;;;;29.23;16.63;;;;;;;-1.36;82.29;98929.05;492873;1144;65187;-61
2021/01/14 14:27:33;;;;;;;28.70;17.50;;;;;;;-1.53;82.15;98942.35;492692;1144;65217;-60
2021/01/14 14:37:37;;;;;;;27.67;13.67;;;;;;;-1.70;81.77;98967.62;492898;1144;65165;-62
2021/01/14 14:47:45;;;;;;;22.77;14.27;;;;;;;-1.74;81.44;98976.31;492747;1144;65140;-64
2021/01/14 14:57:50;;;;;;;24.33;13.97;;;;;;;-1.77;81.57;98994.41;493387;1144;65697;-66
2021/01/14 15:07:54;;;;;;;25.13;14.67;;;;;;;-1.84;82.21;99001.44;494198;1144;65257;-63
2021/01/14 15:17:58;;;;;;;26.07;14.87;;;;;;;-1.91;81.03;99009.30;493609;1144;65212;-68
2021/01/14 15:28:05;;;;;;;25.17;15.53;;;;;;;-2.00;81.71;99025.80;492412;1144;65243;-65
2021/01/14 15:38:09;;;;;;;25.60;15.10;;;;;;;-2.07;81.85;99027.66;493586;1144;65211;-63
2021/01/14 15:48:13;;;;;;;25.70;15.87;;;;;;;-2.07;82.23;99037.95;492474;1144;65525;-63
2021/01/14 15:58:17;;;;;;;22.83;15.70;;;;;;;-2.15;82.24;99061.27;493599;1144;65111;-64
2021/01/14 16:08:23;;;;;;;22.27;14.27;;;;;;;-2.21;82.46;99058.81;493130;1144;65583;-61
2021/01/14 16:18:29;;;;;;;18.90;13.32;;;;;;;-2.24;82.08;99071.73;492888;1144;65226;-62
2021/01/14 16:28:36;;;;;;;26.27;16.70;;;;;;;-2.35;81.93;99084.83;493004;1144;65220;-62
2021/01/14 16:38:45;;;;;;;24.87;16.77;;;;;;;-2.41;82.55;99098.64;493398;1144;65154;-60
2021/01/14 16:48:55;;;;;;;26.00;15.33;;;;;;;-2.44;82.23;99106.39;492501;1144;65467;-60
2021/01/14 16:58:59;;;;;;;22.27;14.40;;;;;;;-2.47;82.26;99118.48;492507;1144;65675;-60
2021/01/14 17:09:04;;;;;;;27.03;16.27;;;;;;;-2.51;82.45;99116.83;493305;1144;65568;-61
2021/01/14 17:19:09;;;;;;;27.10;15.20;;;;;;;-2.50;82.33;99124.52;493552;1142;65117;-63
2021/01/14 17:29:13;;;;;;;25.60;15.85;;;;;;;-2.48;82.39;99127.91;484648;1144;10002061;-64
2021/01/14 17:39:17;;;;;;;26.50;18.77;;;;;;;-2.43;82.68;99132.97;493204;1144;65561;-61
2021/01/14 17:49:23;;;;;;;32.33;19.70;;;;;;;-2.46;82.96;99146.72;492608;1143;65113;-60
2021/01/14 17:59:28;;;;;;;36.53;20.50;;;;;;;-2.52;82.85;99159.70;492613;1144;65251;-61
2021/01/14 18:09:35;;;;;;;26.35;17.55;;;;;;;-3.02;81.57;99187.91;492633;1144;65136;-61
2021/01/14 18:19:39;;;;;;;32.13;21.10;;;;;;;-3.33;82.24;99203.75;492542;1143;65570;-64
2021/01/14 18:29:43;;;;;;;26.53;16.43;;;;;;;-3.53;82.19;99221.12;492937;1144;65204;-61
2021/01/14 18:39:47;;;;;;;26.37;17.97;;;;;;;-3.55;81.84;99237.39;493027;1144;65133;-62
2021/01/14 18:49:51;;;;;;;21.57;14.53;;;;;;;-3.73;81.26;99238.46;493281;1144;65523;-61
2021/01/14 18:59:56;;;;;;;25.63;14.20;;;;;;;-3.94;80.60;99254.08;493208;1144;66345;-62
2021/01/14 19:10:03;;;;;;;20.50;12.57;;;;;;;-4.08;81.25;99253.37;493424;1145;65462;-64
2021/01/14 19:20:09;;;;;;;22.23;14.07;;;;;;;-4.19;81.79;99239.80;493455;1144;65184;-61
2021/01/14 19:30:17;;;;;;;19.37;11.60;;;;;;;-4.26;82.10;99260.36;493085;1144;65604;-59
2021/01/14 19:40:23;;;;;;;17.93;11.23;;;;;;;-4.28;81.32;99256.96;492593;1144;65131;-62
2021/01/14 19:50:27;;;;;;;15.40;9.30;;;;;;;-4.32;81.00;99267.25;492354;1143;65201;-67
2021/01/14 20:00:31;;;;;;;13.90;9.27;;;;;;;-4.38;80.60;99280.97;492761;1144;65264;-66
2021/01/14 20:10:38;;;;;;;14.95;9.40;;;;;;;-4.40;79.96;99287.83;493321;1144;65194;-61
2021/01/14 20:20:45;;;;;;;18.43;10.23;;;;;;;-4.48;80.58;99303.27;493720;1144;65136;-61
2021/01/14 20:30:51;;;;;;;18.37;9.13;;;;;;;-4.59;79.16;99297.38;492576;1144;65427;-65
2021/01/14 20:40:55;;;;;;;12.80;7.80;;;;;;;-4.65;80.30;99293.14;493195;1145;65207;-66
2021/01/14 20:50:59;;;;;;;16.10;9.37;;;;;;;-4.72;79.62;99306.84;493734;1143;65134;-63
2021/01/14 21:01:09;;;;;;;21.00;14.50;;;;;;;-4.75;79.47;99315.38;493502;1144;65105;-64
2021/01/14 21:11:15;;;;;;;16.73;9.70;;;;;;;-4.78;80.21;99307.73;493156;1144;65139;-65
2021/01/14 21:21:27;;;;;;;18.60;10.20;;;;;;;-4.85;80.89;99306.91;493323;1144;65536;-62
2021/01/14 21:31:36;;;;;;;20.63;11.83;;;;;;;-4.81;80.21;99308.59;493322;1143;65102;-66
2021/01/14 21:41:41;;;;;;;20.10;10.30;;;;;;;-4.78;80.69;99307.73;493176;1144;65130;-62
2021/01/14 21:51:49;;;;;;;16.57;10.33;;;;;;;-4.70;81.01;99313.66;493421;1144;65574;-64
2021/01/14 22:01:52;;;;;;;19.47;11.37;;;;;;;-4.67;80.82;99302.55;493449;1144;65141;-65
2021/01/14 22:11:57;;;;;;;22.80;11.90;;;;;;;-4.72;80.82;99317.95;492812;1144;65201;-61
2021/01/14 22:22:02;;;;;;;22.73;11.73;;;;;;;-4.75;81.72;99322.23;492719;1144;65344;-60
2021/01/14 22:32:06;;;;;;;22.03;12.33;;;;;;;-4.72;81.27;99320.52;493002;1144;65151;-69
2021/01/14 22:42:11;;;;;;;26.97;15.53;;;;;;;-4.71;80.79;99318.78;492842;1144;65446;-67
2021/01/14 22:52:15;;;;;;;21.23;12.70;;;;;;;-4.70;81.16;99312.80;493457;1144;65136;-66
2021/01/14 23:02:19;;;;;;;24.23;13.33;;;;;;;-4.64;81.70;99318.73;493423;1145;65181;-66
2021/01/14 23:12:23;;;;;;;19.17;12.20;;;;;;;-4.61;82.36;99311.91;493443;1144;65201;-65
2021/01/14 23:22:30;;;;;;;22.00;11.80;;;;;;;-4.55;82.08;99322.97;493739;1144;65244;-67
2021/01/14 23:32:35;;;;;;;27.97;12.10;;;;;;;-4.46;81.92;99318.62;493024;1144;65550;-69
2021/01/14 23:42:39;;;;;;;22.47;11.67;;;;;;;-4.38;82.75;99330.55;492703;1144;65146;-69
2021/01/14 23:52:44;;;;;;;21.40;12.50;;;;;;;-4.34;82.77;99333.08;492676;1144;65210;-69
